createdAt,value
2018-09-03T17:11:45.678Z,6.10
2018-09-03T17:14:14.113Z,6.30
2018-09-03T17:16:42.542Z,5.20
2018-09-03T17:19:10.942Z,5.40
2018-09-03T17:21:39.531Z,6.17
2018-09-03T17:24:08.062Z,5.20
2018-09-03T17:26:36.523Z,5.65
2018-09-03T17:29:05.208Z,5.00
2018-09-03T17:31:33.834Z,6.60
2018-09-03T17:34:02.325Z,5.40
2018-09-03T17:36:30.724Z,5.90
2018-09-03T17:38:59.153Z,5.87
2018-09-03T17:41:27.586Z,6.97
2018-09-03T17:43:56.094Z,6.80
2018-09-03T17:46:24.666Z,6.03
2018-09-03T17:48:53.198Z,6.05
2018-09-03T17:51:21.652Z,6.15
2018-09-03T17:53:50.062Z,6.30
2018-09-03T17:56:18.497Z,7.95
2018-09-03T17:58:46.947Z,7.70
2018-09-03T18:01:15.545Z,7.50
2018-09-03T18:03:44.099Z,7.20
2018-09-03T18:06:12.897Z,7.53
2018-09-03T18:08:41.365Z,7.30
2018-09-03T18:11:09.814Z,7.80
2018-09-03T18:13:38.341Z,7.58
2018-09-03T18:16:07.014Z,7.30
2018-09-03T18:18:35.689Z,7.50
2018-09-03T18:21:04.380Z,7.05
2018-09-03T18:23:33.151Z,7.33
2018-09-03T18:26:01.858Z,6.90
2018-09-03T18:28:30.255Z,7.47
2018-09-03T18:30:58.771Z,7.55
2018-09-03T18:33:27.290Z,7.53
2018-09-03T18:35:55.914Z,8.00
2018-09-03T18:38:24.555Z,8.20
2018-09-03T18:40:53.246Z,7.80
2018-09-03T18:43:21.687Z,8.05
2018-09-03T18:45:50.327Z,7.70
2018-09-03T18:48:19.164Z,8.30
2018-09-03T18:50:47.895Z,7.90
2018-09-03T18:53:16.831Z,8.37
2018-09-03T18:55:45.732Z,8.27
2018-09-03T18:58:14.695Z,9.07
2018-09-03T19:00:43.170Z,8.50
2018-09-03T19:03:11.634Z,8.58
2018-09-03T19:05:40.281Z,8.10
2018-09-03T19:08:09.362Z,7.97
2018-09-03T19:10:38.332Z,9.20
2018-09-03T19:13:07.171Z,8.40
2018-09-03T19:15:36.144Z,8.55
2018-09-03T19:18:05.009Z,8.30
2018-09-03T19:20:34.094Z,8.60
2018-09-03T19:23:02.651Z,9.00
2018-09-03T19:25:31.090Z,9.47
2018-09-03T19:27:59.967Z,9.00
2018-09-03T19:30:28.862Z,9.30
2018-09-03T19:32:57.425Z,9.85
2018-09-03T19:35:26.052Z,15.55
2018-09-03T19:37:54.665Z,15.40
2018-09-03T19:40:23.184Z,10.25
2018-09-03T19:42:51.651Z,9.63
2018-09-03T19:45:20.216Z,9.78
2018-09-03T19:47:48.716Z,9.50
2018-09-03T19:50:17.371Z,9.85
2018-09-03T19:52:45.929Z,10.15
2018-09-03T19:55:14.370Z,10.40
2018-09-03T19:57:42.844Z,10.00
2018-09-03T20:00:11.474Z,9.70
2018-09-03T20:02:40.057Z,11.00
2018-09-03T20:05:08.500Z,10.13
2018-09-03T20:07:37.113Z,10.75
2018-09-03T20:10:05.954Z,11.78
2018-09-03T20:12:34.531Z,10.98
2018-09-03T20:15:03.052Z,11.80
2018-09-03T20:17:31.473Z,12.23
2018-09-03T20:19:59.939Z,12.00
2018-09-03T20:22:28.439Z,11.73
2018-09-03T20:24:56.973Z,11.80
2018-09-03T20:27:25.543Z,12.30
2018-09-03T20:29:54.131Z,12.00
2018-09-03T20:32:22.655Z,12.73
2018-09-03T20:34:51.198Z,12.43
2018-09-03T20:37:20.040Z,12.20
2018-09-03T20:39:48.539Z,11.90
2018-09-03T20:42:17.022Z,11.90
2018-09-03T20:44:45.702Z,11.70
2018-09-03T20:47:14.224Z,10.93
2018-09-03T20:49:42.677Z,11.45
2018-09-03T20:52:11.132Z,11.05
2018-09-03T20:54:39.647Z,10.65
2018-09-03T20:57:08.255Z,11.50
2018-09-03T20:59:36.779Z,12.25
2018-09-03T21:02:05.437Z,11.68
2018-09-03T21:04:33.986Z,10.77
2018-09-03T21:07:02.523Z,11.60
2018-09-03T21:09:31.100Z,12.00
2018-09-03T21:11:59.544Z,12.70
2018-09-03T21:14:28.132Z,11.50
2018-09-03T21:16:56.591Z,11.68
2018-09-03T21:19:25.127Z,12.18
2018-09-03T21:21:53.775Z,11.12
2018-09-03T21:24:22.414Z,11.50
2018-09-03T21:26:51.029Z,11.95
2018-09-03T21:29:19.527Z,12.63
2018-09-03T21:31:48.206Z,12.65
2018-09-03T21:34:16.661Z,13.23
2018-09-03T21:36:45.255Z,12.65
2018-09-03T21:39:13.888Z,12.90
2018-09-03T21:41:42.549Z,12.63
2018-09-03T21:44:11.139Z,13.30
2018-09-03T21:46:39.655Z,14.55
2018-09-03T21:49:08.198Z,13.32
2018-09-03T21:51:36.607Z,13.20
2018-09-03T21:54:05.237Z,13.68
2018-09-03T21:56:33.794Z,14.40
2018-09-03T21:59:02.287Z,15.00
2018-09-03T22:01:30.771Z,14.10
2018-09-03T22:03:59.322Z,14.77
2018-09-03T22:06:28.806Z,14.43
2018-09-03T22:08:57.262Z,14.93
2018-09-03T22:11:25.762Z,16.35
2018-09-03T22:13:54.194Z,16.75
2018-09-03T22:16:22.784Z,16.00
2018-09-03T22:18:51.398Z,17.15
2018-09-03T22:21:20.002Z,17.35
2018-09-03T22:23:48.574Z,16.48
2018-09-03T22:26:17.212Z,17.15
2018-09-03T22:28:45.625Z,16.17
2018-09-03T22:31:14.244Z,16.52
2018-09-03T22:33:42.762Z,16.57
2018-09-03T22:36:11.233Z,15.72
2018-09-03T22:38:39.766Z,16.30
2018-09-03T22:41:08.310Z,15.10
2018-09-03T22:43:36.774Z,14.70
2018-09-03T22:46:05.252Z,15.98
2018-09-03T22:48:33.730Z,15.72
2018-09-03T22:51:02.427Z,15.17
2018-09-03T22:53:30.923Z,15.63
2018-09-03T22:55:59.378Z,15.80
2018-09-03T22:58:27.761Z,14.65
2018-09-03T23:00:56.222Z,14.25
2018-09-03T23:03:24.723Z,15.63
2018-09-03T23:05:53.159Z,15.20
2018-09-03T23:08:21.624Z,15.40
2018-09-03T23:10:50.159Z,14.85
2018-09-03T23:13:18.786Z,15.30
2018-09-03T23:15:51.853Z,15.10
2018-09-03T23:18:21.716Z,15.03
2018-09-03T23:20:50.133Z,14.98
2018-09-03T23:23:18.612Z,15.00
2018-09-03T23:25:47.698Z,16.40
2018-09-03T23:28:16.353Z,15.18
2018-09-03T23:30:45.219Z,14.70
2018-09-03T23:33:13.788Z,14.18
2018-09-03T23:35:42.318Z,14.80
2018-09-03T23:38:10.730Z,14.33
2018-09-03T23:40:39.237Z,15.63
2018-09-03T23:43:07.800Z,15.45
2018-09-03T23:45:36.264Z,14.90
2018-09-03T23:48:04.915Z,15.47
2018-09-03T23:50:33.382Z,15.35
2018-09-03T23:53:02.031Z,15.32
2018-09-03T23:55:30.593Z,14.37
2018-09-03T23:57:59.211Z,14.30
